Time;durP1;ratioP1;P1;durP2;ratioP2;P2;SDS_P1;SDS_P2;PMS_P1;PMS_P2;Temp;Humidity;BMP_temperature;BMP_pressure;BME280_temperature;BME280_humidity;BME280_pressure;Samples;Min_cycle;Max_cycle;Signal;HPM_P1;HPM_P2
2022/03/01 00:01:16;;;;;;;12.38;7.30;;;;;;;;;;4991926;28;20408;-81
2022/03/01 00:03:41;;;;;;;13.98;8.10;;;;;;;;;;4975919;28;20041;-81
2022/03/01 00:06:07;;;;;;;13.25;7.82;;;;;;;;;;4993063;28;20400;-81
2022/03/01 00:08:33;;;;;;;11.65;7.93;;;;;;;;;;4975103;28;20117;-81
2022/03/01 00:10:59;;;;;;;13.05;7.43;;;;;;;;;;4990642;28;20192;-82
2022/03/01 00:13:25;;;;;;;14.93;8.18;;;;;;;;;;4988891;28;20519;-81
2022/03/01 00:15:50;;;;;;;15.25;8.52;;;;;;;;;;4966597;28;20073;-81
2022/03/01 00:18:16;;;;;;;12.57;7.75;;;;;;;;;;4992856;28;20034;-82
2022/03/01 00:20:41;;;;;;;13.55;7.82;;;;;;;;;;4993923;28;20196;-82
2022/03/01 00:23:06;;;;;;;12.75;7.45;;;;;;;;;;4981187;28;20089;-81
2022/03/01 00:25:32;;;;;;;14.55;7.30;;;;;;;;;;4962687;28;20034;-82
2022/03/01 00:27:57;;;;;;;12.07;7.53;;;;;;;;;;4964636;28;20046;-81
2022/03/01 00:30:22;;;;;;;13.02;7.63;;;;;;;;;;4989143;28;20022;-82
2022/03/01 00:32:48;;;;;;;12.93;7.53;;;;;;;;;;4973659;28;20041;-81
2022/03/01 00:35:13;;;;;;;12.75;8.07;;;;;;;;;;4991573;28;20117;-81
2022/03/01 00:37:39;;;;;;;13.48;7.65;;;;;;;;;;4965162;28;20509;-81
2022/03/01 00:40:05;;;;;;;15.25;8.60;;;;;;;;;;4991240;28;20131;-81
2022/03/01 00:42:30;;;;;;;15.30;7.97;;;;;;;;;;4980371;28;20682;-81
2022/03/01 00:44:56;;;;;;;13.05;7.28;;;;;;;;;;4991235;28;20081;-81
2022/03/01 00:47:21;;;;;;;14.02;8.18;;;;;;;;;;4992846;28;20045;-80
2022/03/01 00:49:47;;;;;;;12.63;7.60;;;;;;;;;;4976137;28;20493;-81
2022/03/01 00:52:12;;;;;;;12.60;7.60;;;;;;;;;;4976831;28;20038;-81
2022/03/01 00:54:38;;;;;;;13.48;7.72;;;;;;;;;;4981627;28;20042;-82
2022/03/01 00:57:03;;;;;;;15.18;8.57;;;;;;;;;;4966359;28;20037;-81
2022/03/01 00:59:29;;;;;;;14.25;7.80;;;;;;;;;;4975748;28;20069;-80
2022/03/01 01:01:54;;;;;;;14.73;8.38;;;;;;;;;;4974544;28;20501;-80
2022/03/01 01:04:19;;;;;;;14.43;7.97;;;;;;;;;;4987338;28;20044;-81
2022/03/01 01:06:45;;;;;;;12.43;8.10;;;;;;;;;;4973847;28;20516;-80
2022/03/01 01:09:13;;;;;;;13.48;8.30;;;;;;;;;;4991028;28;20038;-80
2022/03/01 01:11:38;;;;;;;13.02;7.93;;;;;;;;;;4971094;28;20947;-80
2022/03/01 01:14:04;;;;;;;13.90;7.50;;;;;;;;;;4988638;28;20121;-80
2022/03/01 01:16:29;;;;;;;13.25;8.48;;;;;;;;;;4972543;28;20382;-80
2022/03/01 01:18:55;;;;;;;13.32;8.23;;;;;;;;;;4990002;28;20045;-81
2022/03/01 01:21:21;;;;;;;13.27;7.63;;;;;;;;;;4973750;28;20045;-81
2022/03/01 01:23:46;;;;;;;16.92;8.70;;;;;;;;;;4986833;28;20041;-80
2022/03/01 01:26:12;;;;;;;14.02;8.45;;;;;;;;;;4973930;28;20035;-81
2022/03/01 01:28:37;;;;;;;14.30;8.45;;;;;;;;;;4973347;28;20078;-80
2022/03/01 01:31:03;;;;;;;14.25;8.27;;;;;;;;;;4963792;28;25248;-81
2022/03/01 01:33:28;;;;;;;15.70;8.55;;;;;;;;;;4989928;28;20053;-81
2022/03/01 01:35:53;;;;;;;12.88;7.88;;;;;;;;;;4989172;28;20045;-80
2022/03/01 01:38:19;;;;;;;13.75;8.15;;;;;;;;;;4988486;28;20434;-80
2022/03/01 01:40:44;;;;;;;13.75;8.30;;;;;;;;;;4973115;28;20048;-82
2022/03/01 01:43:09;;;;;;;15.95;8.98;;;;;;;;;;4982663;28;20073;-79
2022/03/01 01:45:35;;;;;;;14.02;7.88;;;;;;;;;;4979027;28;20850;-80
2022/03/01 01:48:02;;;;;;;15.63;8.52;;;;;;;;;;4989662;28;20555;-79
2022/03/01 01:50:30;;;;;;;14.05;8.15;;;;;;;;;;4973087;28;20030;-80
2022/03/01 01:52:56;;;;;;;15.23;8.65;;;;;;;;;;4983563;28;20851;-79
2022/03/01 01:55:27;;;;;;;14.07;8.02;;;;;;;;;;5004196;28;20096;-79
2022/03/01 01:57:52;;;;;;;15.63;9.10;;;;;;;;;;4984538;28;20037;-79
2022/03/01 02:00:18;;;;;;;13.77;8.32;;;;;;;;;;4964894;28;20029;-81
2022/03/01 02:02:44;;;;;;;14.30;8.35;;;;;;;;;;4971132;28;20646;-80
2022/03/01 02:05:10;;;;;;;15.30;8.45;;;;;;;;;;4978956;28;20149;-81
2022/03/01 02:07:36;;;;;;;14.25;8.27;;;;;;;;;;4971006;28;20041;-82
2022/03/01 02:10:04;;;;;;;14.52;8.38;;;;;;;;;;4989468;28;20037;-81
2022/03/01 02:12:29;;;;;;;14.23;8.50;;;;;;;;;;4994607;28;20041;-81
2022/03/01 02:14:55;;;;;;;17.83;8.93;;;;;;;;;;4989596;28;20101;-82
2022/03/01 02:17:20;;;;;;;14.70;8.40;;;;;;;;;;4988663;28;20512;-81
2022/03/01 02:19:50;;;;;;;14.77;8.40;;;;;;;;;;4969262;28;20678;-81
2022/03/01 02:22:15;;;;;;;14.90;8.38;;;;;;;;;;4982812;28;20044;-82
2022/03/01 02:24:41;;;;;;;15.70;8.23;;;;;;;;;;4973881;28;20046;-81
2022/03/01 02:27:06;;;;;;;14.75;8.38;;;;;;;;;;4985527;28;20058;-81
2022/03/01 02:29:32;;;;;;;13.38;7.95;;;;;;;;;;4983278;28;20038;-81
2022/03/01 02:32:00;;;;;;;14.90;9.13;;;;;;;;;;4973052;28;20507;-81
2022/03/01 02:34:25;;;;;;;15.60;8.20;;;;;;;;;;5005177;28;20029;-81
2022/03/01 02:36:51;;;;;;;15.73;8.55;;;;;;;;;;4971973;28;20457;-82
2022/03/01 02:39:17;;;;;;;14.48;8.18;;;;;;;;;;4983193;28;20042;-81
2022/03/01 02:41:44;;;;;;;15.80;8.73;;;;;;;;;;4978601;28;20034;-80
2022/03/01 02:44:11;;;;;;;13.75;8.20;;;;;;;;;;4973453;28;20046;-80
2022/03/01 02:46:36;;;;;;;15.85;8.65;;;;;;;;;;4985085;28;20616;-80
2022/03/01 02:49:03;;;;;;;14.95;8.30;;;;;;;;;;4972329;28;20046;-81
2022/03/01 02:51:28;;;;;;;13.95;8.13;;;;;;;;;;4962164;28;20152;-81
2022/03/01 02:53:54;;;;;;;16.23;8.98;;;;;;;;;;4972195;28;20113;-81
2022/03/01 02:56:19;;;;;;;16.00;8.70;;;;;;;;;;4970598;28;20042;-81
2022/03/01 02:58:45;;;;;;;16.27;8.85;;;;;;;;;;4966636;28;20044;-81
2022/03/01 03:01:10;;;;;;;15.38;8.35;;;;;;;;;;4987785;28;20056;-82
2022/03/01 03:03:35;;;;;;;15.88;8.68;;;;;;;;;;4973741;28;20128;-81
2022/03/01 03:06:01;;;;;;;17.00;8.27;;;;;;;;;;4961956;28;20034;-81
2022/03/01 03:08:26;;;;;;;16.50;8.80;;;;;;;;;;4973549;28;20092;-81
2022/03/01 03:10:52;;;;;;;15.65;8.93;;;;;;;;;;4978693;28;20034;-81
2022/03/01 03:13:17;;;;;;;16.00;9.30;;;;;;;;;;4970026;28;20057;-80
2022/03/01 03:15:43;;;;;;;16.00;9.02;;;;;;;;;;4990667;28;20058;-81
2022/03/01 03:18:11;;;;;;;13.38;8.73;;;;;;;;;;4989522;28;20113;-81
2022/03/01 03:20:36;;;;;;;15.73;9.05;;;;;;;;;;4984639;28;20519;-81
2022/03/01 03:23:02;;;;;;;14.15;8.63;;;;;;;;;;4979534;28;20037;-81
2022/03/01 03:25:27;;;;;;;17.27;8.88;;;;;;;;;;4986457;28;20038;-81
2022/03/01 03:27:52;;;;;;;15.63;8.85;;;;;;;;;;4995449;28;20030;-81
2022/03/01 03:30:18;;;;;;;15.82;9.27;;;;;;;;;;4987053;28;20045;-81
2022/03/01 03:32:43;;;;;;;15.13;8.98;;;;;;;;;;4987553;28;20056;-80
2022/03/01 03:35:09;;;;;;;15.57;8.95;;;;;;;;;;4978677;28;20034;-81
2022/03/01 03:37:34;;;;;;;17.08;9.27;;;;;;;;;;4987684;28;20034;-80
2022/03/01 03:40:00;;;;;;;16.67;8.75;;;;;;;;;;4989707;28;20108;-80
2022/03/01 03:42:25;;;;;;;15.60;9.23;;;;;;;;;;4986811;28;20046;-81
2022/03/01 03:44:50;;;;;;;16.40;9.38;;;;;;;;;;4980123;28;20042;-81
2022/03/01 03:47:16;;;;;;;15.23;8.70;;;;;;;;;;4986072;28;20393;-81
2022/03/01 03:49:42;;;;;;;17.02;9.27;;;;;;;;;;4988818;28;20076;-81
2022/03/01 03:52:08;;;;;;;17.45;8.90;;;;;;;;;;4970290;28;20049;-81
2022/03/01 03:54:34;;;;;;;14.65;8.77;;;;;;;;;;4982182;28;20794;-81
2022/03/01 03:56:59;;;;;;;17.10;9.70;;;;;;;;;;4985459;28;20117;-81
2022/03/01 03:59:24;;;;;;;16.58;9.07;;;;;;;;;;4963005;28;20041;-81
2022/03/01 04:01:50;;;;;;;17.60;9.02;;;;;;;;;;4975437;28;20038;-81
2022/03/01 04:04:16;;;;;;;16.23;9.18;;;;;;;;;;4973567;28;20045;-80
2022/03/01 04:06:42;;;;;;;15.40;8.77;;;;;;;;;;4964204;28;20133;-81
2022/03/01 04:09:09;;;;;;;13.68;8.35;;;;;;;;;;4979033;28;20705;-81
2022/03/01 04:11:35;;;;;;;15.63;8.48;;;;;;;;;;4961533;28;20057;-80
2022/03/01 04:14:01;;;;;;;14.45;8.30;;;;;;;;;;4984526;28;20416;-80
2022/03/01 04:16:29;;;;;;;15.38;8.48;;;;;;;;;;4985527;28;20044;-81
2022/03/01 04:18:55;;;;;;;19.98;9.38;;;;;;;;;;4977272;28;20459;-81
2022/03/01 04:21:20;;;;;;;15.55;8.65;;;;;;;;;;4990563;28;20042;-82
2022/03/01 04:23:46;;;;;;;15.13;9.05;;;;;;;;;;4973395;28;20056;-80
2022/03/01 04:26:12;;;;;;;15.20;8.23;;;;;;;;;;4983800;28;20065;-82
2022/03/01 04:28:37;;;;;;;15.38;8.80;;;;;;;;;;4992327;28;20045;-82
2022/03/01 04:31:02;;;;;;;16.20;9.10;;;;;;;;;;4989419;28;20037;-82
2022/03/01 04:33:27;;;;;;;16.25;8.63;;;;;;;;;;4990617;28;20073;-82
2022/03/01 04:35:54;;;;;;;15.90;8.55;;;;;;;;;;4989554;28;20105;-80
2022/03/01 04:38:20;;;;;;;15.80;8.85;;;;;;;;;;4970919;28;20038;-81
2022/03/01 04:40:46;;;;;;;15.13;8.60;;;;;;;;;;4986572;28;20047;-81
2022/03/01 04:43:12;;;;;;;18.58;9.10;;;;;;;;;;4979818;28;20181;-81
2022/03/01 04:45:37;;;;;;;14.50;9.00;;;;;;;;;;4990977;28;20050;-81
2022/03/01 04:48:02;;;;;;;16.42;9.05;;;;;;;;;;4989386;28;20099;-81
2022/03/01 04:50:28;;;;;;;16.08;8.80;;;;;;;;;;4987107;28;20124;-80
2022/03/01 04:52:53;;;;;;;14.93;8.63;;;;;;;;;;4987714;28;20060;-80
2022/03/01 04:55:19;;;;;;;14.38;8.70;;;;;;;;;;4975387;28;20038;-80
2022/03/01 04:57:45;;;;;;;15.38;8.75;;;;;;;;;;4985865;28;20073;-80
2022/03/01 05:00:11;;;;;;;15.88;8.60;;;;;;;;;;4974893;28;20064;-80
2022/03/01 05:02:41;;;;;;;17.23;9.10;;;;;;;;;;4990620;28;20046;-81
2022/03/01 05:05:10;;;;;;;16.45;8.38;;;;;;;;;;4973054;28;20034;-81
2022/03/01 05:07:42;;;;;;;18.15;8.90;;;;;;;;;;4972376;28;20105;-80
2022/03/01 05:10:09;;;;;;;16.92;8.90;;;;;;;;;;4969762;28;20088;-81
2022/03/01 05:12:52;;;;;;;18.13;9.23;;;;;;;;;;4986041;28;20146;-80
2022/03/01 05:15:18;;;;;;;16.70;8.50;;;;;;;;;;5006020;28;20674;-80
2022/03/01 05:17:43;;;;;;;16.17;9.13;;;;;;;;;;4985863;28;20081;-81
2022/03/01 05:20:11;;;;;;;15.13;8.73;;;;;;;;;;4986776;28;20434;-81
2022/03/01 05:22:37;;;;;;;15.55;8.30;;;;;;;;;;4990967;28;20097;-80
2022/03/01 05:25:09;;;;;;;14.68;8.75;;;;;;;;;;4990698;28;20569;-79
2022/03/01 05:27:38;;;;;;;16.73;8.13;;;;;;;;;;4990653;28;20037;-80
2022/03/01 05:30:08;;;;;;;16.40;9.38;;;;;;;;;;4971484;28;20073;-81
2022/03/01 05:32:34;;;;;;;16.02;8.68;;;;;;;;;;4974637;28;20065;-84
2022/03/01 05:35:00;;;;;;;15.47;8.87;;;;;;;;;;5005063;28;20172;-81
2022/03/01 05:37:26;;;;;;;16.70;9.18;;;;;;;;;;4980664;28;20101;-81
2022/03/01 05:39:51;;;;;;;16.98;9.15;;;;;;;;;;4990938;28;20535;-80
2022/03/01 05:42:16;;;;;;;15.15;9.20;;;;;;;;;;4974900;28;20034;-81
2022/03/01 05:44:42;;;;;;;16.67;9.07;;;;;;;;;;4972074;28;20049;-80
2022/03/01 05:47:07;;;;;;;16.08;8.50;;;;;;;;;;4975964;28;20039;-80
2022/03/01 05:49:33;;;;;;;18.90;9.32;;;;;;;;;;4987721;28;20119;-81
2022/03/01 05:51:59;;;;;;;18.65;9.30;;;;;;;;;;4973534;28;20516;-80
2022/03/01 05:54:24;;;;;;;16.45;9.27;;;;;;;;;;4989449;28;20026;-81
2022/03/01 05:56:50;;;;;;;20.10;9.27;;;;;;;;;;4987546;28;20512;-80
2022/03/01 05:59:18;;;;;;;19.85;9.30;;;;;;;;;;4978769;28;20038;-81
2022/03/01 06:01:43;;;;;;;14.65;8.55;;;;;;;;;;4972064;28;20072;-79
2022/03/01 06:04:08;;;;;;;18.58;9.25;;;;;;;;;;4966293;28;20128;-82
2022/03/01 06:06:33;;;;;;;16.98;8.85;;;;;;;;;;4976866;28;20045;-82
2022/03/01 06:08:59;;;;;;;15.77;9.40;;;;;;;;;;4981723;28;20108;-82
2022/03/01 06:11:24;;;;;;;15.80;8.70;;;;;;;;;;4983298;28;20502;-81
2022/03/01 06:13:49;;;;;;;15.02;8.82;;;;;;;;;;4987124;28;20406;-79
2022/03/01 06:16:15;;;;;;;15.50;9.05;;;;;;;;;;4972824;28;20069;-81
2022/03/01 06:18:40;;;;;;;17.38;8.90;;;;;;;;;;4967073;28;20126;-83
2022/03/01 06:21:05;;;;;;;18.13;9.43;;;;;;;;;;4972431;28;20030;-84
2022/03/01 06:23:32;;;;;;;20.30;9.48;;;;;;;;;;4976728;28;20134;-82
2022/03/01 06:25:57;;;;;;;16.85;9.77;;;;;;;;;;4984391;28;20061;-77
2022/03/01 06:28:23;;;;;;;21.02;9.48;;;;;;;;;;4965905;28;20034;-77
2022/03/01 06:30:48;;;;;;;22.60;11.55;;;;;;;;;;4977720;28;20041;-77
2022/03/01 06:33:13;;;;;;;16.02;8.75;;;;;;;;;;4966137;28;20040;-79
2022/03/01 06:35:39;;;;;;;18.08;8.85;;;;;;;;;;4984984;28;20156;-79
2022/03/01 06:38:04;;;;;;;17.58;9.13;;;;;;;;;;4984781;28;20049;-81
2022/03/01 06:40:30;;;;;;;15.35;8.68;;;;;;;;;;4972770;28;20514;-81
2022/03/01 06:42:56;;;;;;;16.92;8.73;;;;;;;;;;4967287;28;20688;-81
2022/03/01 06:45:21;;;;;;;16.70;9.00;;;;;;;;;;4967313;28;20530;-81
2022/03/01 06:47:47;;;;;;;17.50;8.93;;;;;;;;;;4973132;28;20034;-81
2022/03/01 06:50:12;;;;;;;16.77;9.05;;;;;;;;;;4965125;28;20061;-81
2022/03/01 06:52:38;;;;;;;15.95;8.98;;;;;;;;;;4978064;28;20056;-80
2022/03/01 06:55:05;;;;;;;16.92;9.00;;;;;;;;;;4977605;28;20419;-81
2022/03/01 06:57:31;;;;;;;19.05;9.63;;;;;;;;;;4962064;28;20061;-80
2022/03/01 06:59:56;;;;;;;16.55;9.18;;;;;;;;;;4973648;28;20041;-79
2022/03/01 07:02:22;;;;;;;14.98;9.18;;;;;;;;;;4975237;28;20037;-79
2022/03/01 07:04:47;;;;;;;18.08;9.35;;;;;;;;;;4965076;28;20034;-79
2022/03/01 07:07:13;;;;;;;19.77;9.18;;;;;;;;;;4988702;28;20205;-79
2022/03/01 07:09:38;;;;;;;17.58;9.45;;;;;;;;;;4990487;28;20121;-78
2022/03/01 07:12:24;;;;;;;15.02;8.45;;;;;;;;;;4987859;28;20043;-78
2022/03/01 07:14:50;;;;;;;20.27;9.18;;;;;;;;;;4926234;29;20059;-79
2022/03/01 07:17:19;;;;;;;17.65;9.05;;;;;;;;;;4939339;28;20043;-78
2022/03/01 07:19:44;;;;;;;15.93;8.73;;;;;;;;;;4944256;28;20050;-79
2022/03/01 07:22:09;;;;;;;15.25;8.82;;;;;;;;;;4917291;28;20040;-79
2022/03/01 07:24:34;;;;;;;18.58;9.45;;;;;;;;;;4900599;29;20040;-78
2022/03/01 07:27:00;;;;;;;16.05;8.57;;;;;;;;;;4924551;28;20043;-78
2022/03/01 07:29:25;;;;;;;15.45;8.52;;;;;;;;;;4941224;28;20246;-79
2022/03/01 07:31:52;;;;;;;18.48;9.13;;;;;;;;;;4921814;29;20516;-78
2022/03/01 07:34:18;;;;;;;17.83;9.27;;;;;;;;;;4908696;28;20035;-79
2022/03/01 07:36:43;;;;;;;17.23;9.35;;;;;;;;;;4925532;28;20291;-79
2022/03/01 07:39:08;;;;;;;14.55;8.27;;;;;;;;;;4938993;28;20051;-79
2022/03/01 07:41:34;;;;;;;16.73;8.40;;;;;;;;;;4906833;29;20142;-79
2022/03/01 07:43:59;;;;;;;16.85;8.98;;;;;;;;;;4940956;28;20572;-79
2022/03/01 07:46:24;;;;;;;17.17;9.02;;;;;;;;;;4940069;28;20043;-79
2022/03/01 07:48:50;;;;;;;17.48;8.85;;;;;;;;;;4941157;28;20058;-79
2022/03/01 07:51:15;;;;;;;15.32;8.60;;;;;;;;;;4931922;28;20125;-80
2022/03/01 07:53:40;;;;;;;18.70;8.48;;;;;;;;;;4951403;28;20060;-80
2022/03/01 07:56:06;;;;;;;17.10;8.55;;;;;;;;;;4987329;28;20052;-79
2022/03/01 07:58:31;;;;;;;14.20;7.88;;;;;;;;;;4990040;28;20033;-79
2022/03/01 08:00:57;;;;;;;16.75;8.68;;;;;;;;;;4988437;28;20778;-79
2022/03/01 08:03:22;;;;;;;16.52;8.73;;;;;;;;;;4979674;28;20049;-78
2022/03/01 08:05:47;;;;;;;16.58;8.20;;;;;;;;;;4986045;28;20042;-79
2022/03/01 08:08:13;;;;;;;17.15;8.68;;;;;;;;;;4980969;28;20121;-79
2022/03/01 08:10:39;;;;;;;13.40;7.80;;;;;;;;;;4965718;28;20667;-79
2022/03/01 08:13:04;;;;;;;14.90;7.72;;;;;;;;;;4989372;28;20100;-79
2022/03/01 08:15:32;;;;;;;15.60;8.10;;;;;;;;;;4972172;28;20121;-79
2022/03/01 08:17:58;;;;;;;13.55;6.70;;;;;;;;;;4966418;28;20558;-79
2022/03/01 08:20:25;;;;;;;12.88;7.32;;;;;;;;;;4987945;28;20119;-79
2022/03/01 08:22:50;;;;;;;13.93;7.78;;;;;;;;;;4987624;28;20057;-79
2022/03/01 08:25:16;;;;;;;13.25;7.50;;;;;;;;;;4963433;28;20408;-79
2022/03/01 08:27:42;;;;;;;14.48;7.55;;;;;;;;;;4976099;28;20069;-77
2022/03/01 08:30:08;;;;;;;14.50;7.40;;;;;;;;;;4990237;28;20034;-79
2022/03/01 08:32:33;;;;;;;14.45;7.45;;;;;;;;;;4990090;28;20141;-79
2022/03/01 08:35:03;;;;;;;14.30;7.68;;;;;;;;;;4967897;28;20056;-79
2022/03/01 08:37:29;;;;;;;14.32;6.85;;;;;;;;;;4965713;28;20084;-80
2022/03/01 08:39:54;;;;;;;11.30;6.90;;;;;;;;;;4991193;28;20468;-79
2022/03/01 08:42:20;;;;;;;13.73;6.88;;;;;;;;;;4991301;28;20041;-79
2022/03/01 08:44:45;;;;;;;12.63;7.30;;;;;;;;;;4969828;28;20069;-79
2022/03/01 08:47:11;;;;;;;13.45;7.20;;;;;;;;;;4988608;28;20053;-79
2022/03/01 08:49:36;;;;;;;11.30;6.75;;;;;;;;;;4992554;28;20049;-80
2022/03/01 08:52:02;;;;;;;11.82;7.10;;;;;;;;;;4990968;28;20420;-80
2022/03/01 08:54:27;;;;;;;12.27;7.20;;;;;;;;;;4991565;28;20397;-80
2022/03/01 08:56:52;;;;;;;11.60;7.25;;;;;;;;;;4989890;28;20586;-79
2022/03/01 08:59:18;;;;;;;10.93;6.75;;;;;;;;;;4991483;28;20094;-80
2022/03/01 09:01:44;;;;;;;12.05;7.18;;;;;;;;;;4974357;28;20687;-78
2022/03/01 09:04:09;;;;;;;12.60;7.15;;;;;;;;;;4991090;28;20388;-79
2022/03/01 09:06:35;;;;;;;11.43;7.20;;;;;;;;;;4990531;28;20073;-79
2022/03/01 09:09:00;;;;;;;10.68;7.28;;;;;;;;;;4967037;28;20500;-79
2022/03/01 09:11:25;;;;;;;11.73;7.30;;;;;;;;;;4965010;28;20037;-79
2022/03/01 09:13:51;;;;;;;11.18;6.75;;;;;;;;;;4973793;28;20511;-79
2022/03/01 09:16:19;;;;;;;10.73;7.20;;;;;;;;;;4980920;28;20547;-80
2022/03/01 09:18:44;;;;;;;11.93;7.40;;;;;;;;;;4981581;28;20042;-79
2022/03/01 09:21:10;;;;;;;12.07;6.95;;;;;;;;;;4972401;28;20052;-78
2022/03/01 09:23:35;;;;;;;11.32;7.05;;;;;;;;;;4987678;28;20141;-79
2022/03/01 09:26:01;;;;;;;12.20;7.13;;;;;;;;;;4986832;28;20455;-79
2022/03/01 09:28:26;;;;;;;11.98;7.65;;;;;;;;;;4965906;28;20037;-79
2022/03/01 09:30:51;;;;;;;12.15;7.28;;;;;;;;;;4979285;28;20054;-80
2022/03/01 09:33:17;;;;;;;12.13;6.93;;;;;;;;;;4970817;28;20038;-80
2022/03/01 09:35:42;;;;;;;12.73;7.35;;;;;;;;;;4983462;28;20088;-79
2022/03/01 09:38:08;;;;;;;11.15;7.18;;;;;;;;;;4963889;28;20040;-79
2022/03/01 09:40:34;;;;;;;11.88;7.32;;;;;;;;;;5004997;28;20422;-79
2022/03/01 09:43:01;;;;;;;11.77;7.85;;;;;;;;;;4973795;28;20683;-80
2022/03/01 09:45:26;;;;;;;12.18;7.90;;;;;;;;;;4986745;28;20140;-80
2022/03/01 09:47:52;;;;;;;12.45;7.78;;;;;;;;;;4965082;28;20137;-80
2022/03/01 09:50:20;;;;;;;11.73;7.13;;;;;;;;;;4989146;28;20042;-78
2022/03/01 09:52:46;;;;;;;13.52;6.95;;;;;;;;;;4964522;28;20528;-79
2022/03/01 09:55:11;;;;;;;12.68;7.03;;;;;;;;;;4988514;28;20034;-81
2022/03/01 09:57:37;;;;;;;11.65;6.85;;;;;;;;;;4987802;28;20054;-81
2022/03/01 10:00:04;;;;;;;10.65;6.28;;;;;;;;;;4962240;28;20456;-78
2022/03/01 10:02:37;;;;;;;9.60;6.07;;;;;;;;;;4966017;28;20034;-80
2022/03/01 10:05:02;;;;;;;10.07;5.88;;;;;;;;;;4987524;28;20053;-79
2022/03/01 10:07:30;;;;;;;10.73;6.15;;;;;;;;;;4960142;28;20113;-78
2022/03/01 10:10:03;;;;;;;12.15;6.63;;;;;;;;;;4974171;28;20117;-79
2022/03/01 10:12:29;;;;;;;8.80;5.68;;;;;;;;;;4997915;28;20191;-77
2022/03/01 10:14:59;;;;;;;9.45;5.47;;;;;;;;;;4989490;28;20121;-79
2022/03/01 10:17:32;;;;;;;9.55;5.40;;;;;;;;;;4984055;28;20046;-80
2022/03/01 10:20:07;;;;;;;12.82;5.18;;;;;;;;;;4969886;28;20037;-80
2022/03/01 10:22:32;;;;;;;8.85;5.15;;;;;;;;;;4986479;28;20509;-80
2022/03/01 10:25:06;;;;;;;9.60;5.20;;;;;;;;;;4972519;28;20042;-80
2022/03/01 10:27:33;;;;;;;10.45;5.82;;;;;;;;;;4963395;28;20038;-78
2022/03/01 10:29:58;;;;;;;8.57;5.13;;;;;;;;;;4964804;28;20116;-81
2022/03/01 10:32:26;;;;;;;8.63;4.70;;;;;;;;;;4986748;28;20558;-79
2022/03/01 10:34:59;;;;;;;9.02;5.45;;;;;;;;;;4986617;28;20543;-81
2022/03/01 10:37:29;;;;;;;9.75;5.10;;;;;;;;;;4988526;28;20062;-81
2022/03/01 10:40:19;;;;;;;11.10;5.18;;;;;;;;;;4987156;28;20038;-79
2022/03/01 10:42:57;;;;;;;8.57;5.22;;;;;;;;;;4966667;28;20413;-82
2022/03/01 10:45:30;;;;;;;9.85;5.22;;;;;;;;;;4990102;28;20132;-79
2022/03/01 10:47:55;;;;;;;10.90;5.68;;;;;;;;;;4985990;28;20042;-80
2022/03/01 10:50:22;;;;;;;9.70;5.13;;;;;;;;;;4982660;28;20026;-79
2022/03/01 10:52:48;;;;;;;7.47;4.75;;;;;;;;;;4985780;28;20060;-81
2022/03/01 10:55:24;;;;;;;9.27;5.10;;;;;;;;;;4977546;28;20425;-80
2022/03/01 10:58:00;;;;;;;9.52;5.30;;;;;;;;;;4969701;28;20119;-79
2022/03/01 11:00:25;;;;;;;8.38;5.00;;;;;;;;;;4989707;28;20044;-79
2022/03/01 11:02:51;;;;;;;8.45;5.35;;;;;;;;;;4961739;28;20489;-77
2022/03/01 11:05:16;;;;;;;8.57;5.10;;;;;;;;;;4976585;28;20037;-78
2022/03/01 11:07:43;;;;;;;8.98;5.22;;;;;;;;;;4988579;28;20053;-78
2022/03/01 11:10:12;;;;;;;10.18;5.28;;;;;;;;;;4967734;28;20033;-79
2022/03/01 11:12:39;;;;;;;8.85;5.18;;;;;;;;;;4971877;28;20431;-80
2022/03/01 11:15:15;;;;;;;7.70;5.05;;;;;;;;;;4972564;28;20061;-79
2022/03/01 11:17:55;;;;;;;7.65;5.35;;;;;;;;;;4977566;28;20053;-80
2022/03/01 11:20:24;;;;;;;8.38;5.15;;;;;;;;;;4982760;28;20164;-79
2022/03/01 11:23:03;;;;;;;8.52;5.00;;;;;;;;;;4963263;28;20475;-79
2022/03/01 11:25:39;;;;;;;8.65;5.30;;;;;;;;;;4971564;28;20084;-80
2022/03/01 11:28:09;;;;;;;8.32;5.05;;;;;;;;;;5008517;28;20686;-78
2022/03/01 11:30:51;;;;;;;7.47;5.20;;;;;;;;;;4987595;28;20038;-80
2022/03/01 11:33:26;;;;;;;8.95;5.15;;;;;;;;;;4979448;28;20103;-80
2022/03/01 11:35:53;;;;;;;9.30;5.32;;;;;;;;;;4991005;28;20046;-79
2022/03/01 11:38:19;;;;;;;9.27;5.90;;;;;;;;;;4968464;28;20038;-79
2022/03/01 11:40:50;;;;;;;7.38;5.20;;;;;;;;;;4974321;28;20595;-80
2022/03/01 11:43:26;;;;;;;8.65;5.00;;;;;;;;;;4971178;28;20627;-79
2022/03/01 11:45:56;;;;;;;8.80;5.07;;;;;;;;;;5003639;28;20088;-78
2022/03/01 11:48:26;;;;;;;9.30;5.47;;;;;;;;;;4991746;28;20038;-80
2022/03/01 11:50:56;;;;;;;8.88;5.35;;;;;;;;;;4993190;28;20037;-79
2022/03/01 11:53:23;;;;;;;7.38;5.10;;;;;;;;;;5001721;28;20191;-80
2022/03/01 11:55:52;;;;;;;8.40;5.20;;;;;;;;;;4966971;28;20463;-79
2022/03/01 11:58:18;;;;;;;9.18;5.07;;;;;;;;;;4991147;28;20057;-80
2022/03/01 12:00:46;;;;;;;8.18;5.22;;;;;;;;;;4975722;28;20495;-79
2022/03/01 12:03:25;;;;;;;7.40;4.88;;;;;;;;;;4991470;28;20492;-80
2022/03/01 12:05:51;;;;;;;6.90;4.90;;;;;;;;;;4975459;28;20045;-79
2022/03/01 12:08:18;;;;;;;7.90;5.03;;;;;;;;;;4965712;28;20057;-79
2022/03/01 12:11:02;;;;;;;8.55;5.03;;;;;;;;;;5007623;28;20033;-78
2022/03/01 12:13:40;;;;;;;7.57;4.55;;;;;;;;;;4982463;28;20433;-79
2022/03/01 12:16:07;;;;;;;7.60;4.20;;;;;;;;;;4970535;28;20073;-80
2022/03/01 12:18:35;;;;;;;7.55;4.35;;;;;;;;;;4967022;28;20533;-79
2022/03/01 12:21:06;;;;;;;8.05;4.45;;;;;;;;;;4977321;28;20042;-79
2022/03/01 12:23:33;;;;;;;7.53;4.57;;;;;;;;;;5000677;28;20046;-79
2022/03/01 12:26:01;;;;;;;6.93;4.50;;;;;;;;;;4968020;28;20101;-80
2022/03/01 12:28:33;;;;;;;9.18;4.50;;;;;;;;;;4981281;28;20038;-79
2022/03/01 12:31:06;;;;;;;8.90;4.95;;;;;;;;;;4967763;28;20097;-78
2022/03/01 12:33:32;;;;;;;7.43;4.55;;;;;;;;;;4960871;28;20928;-79
2022/03/01 12:35:58;;;;;;;8.25;4.50;;;;;;;;;;4982077;28;20053;-78
2022/03/01 12:38:24;;;;;;;7.63;4.60;;;;;;;;;;4961363;28;20082;-78
2022/03/01 12:40:49;;;;;;;7.43;4.40;;;;;;;;;;4979453;28;20651;-78
2022/03/01 12:43:14;;;;;;;8.20;4.80;;;;;;;;;;4967668;28;20034;-79
2022/03/01 12:45:44;;;;;;;7.95;5.00;;;;;;;;;;4975720;28;20041;-79
2022/03/01 12:48:12;;;;;;;6.68;4.20;;;;;;;;;;4979721;28;20039;-77
2022/03/01 12:50:47;;;;;;;;;;;;;;;;;;4962197;28;20085;-79
2022/03/01 12:53:13;;;;;;;7.72;4.10;;;;;;;;;;4966026;28;20439;-78
2022/03/01 12:55:40;;;;;;;6.28;3.90;;;;;;;;;;4968737;28;20042;-78
2022/03/01 12:58:21;;;;;;;8.98;4.05;;;;;;;;;;4970467;28;20105;-79
2022/03/01 13:00:48;;;;;;;6.78;3.80;;;;;;;;;;4965342;28;20620;-80
2022/03/01 13:03:26;;;;;;;7.97;4.47;;;;;;;;;;4984212;28;20125;-79
2022/03/01 13:06:03;;;;;;;7.25;3.72;;;;;;;;;;4983764;28;20309;-79
2022/03/01 13:08:31;;;;;;;5.93;4.00;;;;;;;;;;4983632;28;20034;-79
2022/03/01 13:10:56;;;;;;;6.20;3.88;;;;;;;;;;4963584;28;20034;-80
2022/03/01 13:13:21;;;;;;;7.50;4.10;;;;;;;;;;4969319;28;20041;-78
2022/03/01 13:15:47;;;;;;;6.00;3.55;;;;;;;;;;4965064;28;20161;-79
2022/03/01 13:18:13;;;;;;;6.50;4.00;;;;;;;;;;4969685;28;20394;-79
2022/03/01 13:20:38;;;;;;;8.45;4.07;;;;;;;;;;4979498;28;20082;-80
2022/03/01 13:23:08;;;;;;;6.28;3.65;;;;;;;;;;4961597;28;20037;-80
2022/03/01 13:25:36;;;;;;;7.25;4.00;;;;;;;;;;4997901;28;20046;-79
2022/03/01 13:28:02;;;;;;;6.68;3.83;;;;;;;;;;4981200;28;20038;-79
2022/03/01 13:30:28;;;;;;;8.70;4.10;;;;;;;;;;4977333;28;20046;-80
2022/03/01 13:33:11;;;;;;;7.30;4.07;;;;;;;;;;4981892;28;20378;-79
2022/03/01 13:35:38;;;;;;;8.00;3.97;;;;;;;;;;4981037;28;20493;-80
2022/03/01 13:38:09;;;;;;;7.85;4.30;;;;;;;;;;4965371;28;20073;-79
2022/03/01 13:40:36;;;;;;;7.65;4.10;;;;;;;;;;4961150;28;20413;-80
2022/03/01 13:43:17;;;;;;;6.83;4.23;;;;;;;;;;4980701;28;20036;-81
2022/03/01 13:45:43;;;;;;;7.20;4.03;;;;;;;;;;4960739;28;20250;-82
2022/03/01 13:48:13;;;;;;;7.78;4.30;;;;;;;;;;4964029;28;20037;-80
2022/03/01 13:50:44;;;;;;;7.43;3.85;;;;;;;;;;4968060;28;20066;-79
2022/03/01 13:53:14;;;;;;;6.60;4.10;;;;;;;;;;4993122;28;20045;-83
2022/03/01 13:55:41;;;;;;;7.20;4.10;;;;;;;;;;4980449;28;20528;-80
2022/03/01 13:58:08;;;;;;;7.22;4.28;;;;;;;;;;4980334;28;20042;-80
2022/03/01 14:00:33;;;;;;;8.55;4.50;;;;;;;;;;4962584;28;20042;-79
2022/03/01 14:03:03;;;;;;;8.75;4.60;;;;;;;;;;4983132;28;20137;-82
2022/03/01 14:05:29;;;;;;;6.85;4.13;;;;;;;;;;4981456;28;20125;-80
2022/03/01 14:08:02;;;;;;;8.80;4.00;;;;;;;;;;4978679;28;20378;-80
2022/03/01 14:10:39;;;;;;;7.25;4.60;;;;;;;;;;4966195;28;20050;-81
2022/03/01 14:13:09;;;;;;;7.78;5.05;;;;;;;;;;4984728;28;20039;-79
2022/03/01 14:15:40;;;;;;;8.60;5.25;;;;;;;;;;4966230;28;20441;-82
2022/03/01 14:18:07;;;;;;;10.85;5.03;;;;;;;;;;4981104;28;20714;-79
2022/03/01 14:20:32;;;;;;;7.90;5.10;;;;;;;;;;4979890;28;20027;-80
2022/03/01 14:22:58;;;;;;;8.45;4.80;;;;;;;;;;4981968;28;20038;-80
2022/03/01 14:25:25;;;;;;;8.15;4.70;;;;;;;;;;4981574;28;20038;-78
2022/03/01 14:27:50;;;;;;;9.43;4.90;;;;;;;;;;4982430;28;20048;-80
2022/03/01 14:30:16;;;;;;;7.20;4.28;;;;;;;;;;4962716;28;20042;-80
2022/03/01 14:32:41;;;;;;;7.63;4.47;;;;;;;;;;4965772;28;20041;-80